sensor_id;sensor_type;location;lat;lon;timestamp;pressure;altitude;pressure_sealevel;temperature;humidity
45050;BME280;61798;48.048;-1.928;2023-09-08T00:01:27;100785.34;;;20.88;100.00
45050;BME280;61798;48.048;-1.928;2023-09-08T00:03:32;100791.00;;;20.81;100.00
45050;BME280;61798;48.048;-1.928;2023-09-08T00:05:38;100792.84;;;20.76;100.00
45050;BME280;61798;48.048;-1.928;2023-09-08T00:07:44;100796.16;;;20.78;100.00
45050;BME280;61798;48.048;-1.928;2023-09-08T00:09:50;100810.69;;;20.89;100.00
45050;BME280;61798;48.048;-1.928;2023-09-08T00:11:56;100810.41;;;20.90;100.00
45050;BME280;61798;48.048;-1.928;2023-09-08T00:14:02;100807.97;;;20.94;100.00
45050;BME280;61798;48.048;-1.928;2023-09-08T00:16:09;100799.47;;;21.13;100.00
45050;BME280;61798;48.048;-1.928;2023-09-08T00:18:15;100807.00;;;21.06;100.00
45050;BME280;61798;48.048;-1.928;2023-09-08T00:20:21;100800.59;;;21.17;100.00
45050;BME280;61798;48.048;-1.928;2023-09-08T00:22:27;100789.97;;;21.21;100.00
45050;BME280;61798;48.048;-1.928;2023-09-08T00:24:34;100799.22;;;21.20;100.00
45050;BME280;61798;48.048;-1.928;2023-09-08T00:26:40;100801.72;;;21.27;100.00
45050;BME280;61798;48.048;-1.928;2023-09-08T00:28:47;100799.00;;;21.27;100.00
45050;BME280;61798;48.048;-1.928;2023-09-08T00:30:53;100787.53;;;21.24;100.00
45050;BME280;61798;48.048;-1.928;2023-09-08T00:32:59;100804.97;;;21.23;100.00
45050;BME280;61798;48.048;-1.928;2023-09-08T00:35:11;100806.91;;;21.28;100.00
45050;BME280;61798;48.048;-1.928;2023-09-08T00:37:17;100800.88;;;21.21;100.00
45050;BME280;61798;48.048;-1.928;2023-09-08T00:39:23;100803.94;;;21.02;100.00
45050;BME280;61798;48.048;-1.928;2023-09-08T00:41:29;100799.41;;;21.08;100.00
45050;BME280;61798;48.048;-1.928;2023-09-08T00:43:35;100804.97;;;21.23;100.00
45050;BME280;61798;48.048;-1.928;2023-09-08T00:45:42;100793.78;;;21.20;100.00
45050;BME280;61798;48.048;-1.928;2023-09-08T00:47:48;100790.22;;;21.19;100.00
45050;BME280;61798;48.048;-1.928;2023-09-08T00:49:54;100804.13;;;21.18;100.00
45050;BME280;61798;48.048;-1.928;2023-09-08T00:52:00;100786.22;;;20.99;100.00
45050;BME280;61798;48.048;-1.928;2023-09-08T00:54:06;100805.94;;;21.07;100.00
45050;BME280;61798;48.048;-1.928;2023-09-08T00:56:12;100802.06;;;21.02;100.00
45050;BME280;61798;48.048;-1.928;2023-09-08T00:58:18;100799.72;;;20.84;100.00
45050;BME280;61798;48.048;-1.928;2023-09-08T01:00:24;100806.13;;;21.00;100.00
45050;BME280;61798;48.048;-1.928;2023-09-08T01:02:30;100808.19;;;21.15;100.00
45050;BME280;61798;48.048;-1.928;2023-09-08T01:04:37;100802.63;;;21.05;100.00
45050;BME280;61798;48.048;-1.928;2023-09-08T01:06:46;100793.47;;;20.83;100.00
45050;BME280;61798;48.048;-1.928;2023-09-08T01:08:53;100799.84;;;20.99;100.00
45050;BME280;61798;48.048;-1.928;2023-09-08T01:11:00;100792.06;;;21.08;100.00
45050;BME280;61798;48.048;-1.928;2023-09-08T01:13:07;100812.69;;;21.04;100.00
45050;BME280;61798;48.048;-1.928;2023-09-08T01:15:13;100784.59;;;20.98;100.00
45050;BME280;61798;48.048;-1.928;2023-09-08T01:17:19;100804.84;;;21.08;100.00
45050;BME280;61798;48.048;-1.928;2023-09-08T01:19:25;100797.59;;;20.91;100.00
45050;BME280;61798;48.048;-1.928;2023-09-08T01:21:58;100766.44;;;20.76;100.00
45050;BME280;61798;48.048;-1.928;2023-09-08T01:26:52;100796.34;;;21.04;100.00
45050;BME280;61798;48.048;-1.928;2023-09-08T01:28:59;100789.09;;;21.10;100.00
45050;BME280;61798;48.048;-1.928;2023-09-08T01:31:06;100802.44;;;21.11;100.00
45050;BME280;61798;48.048;-1.928;2023-09-08T01:33:12;100800.22;;;21.08;100.00
45050;BME280;61798;48.048;-1.928;2023-09-08T01:35:18;100782.44;;;21.00;100.00
45050;BME280;61798;48.048;-1.928;2023-09-08T01:37:24;100780.84;;;21.05;100.00
45050;BME280;61798;48.048;-1.928;2023-09-08T01:39:30;100786.88;;;21.07;100.00
45050;BME280;61798;48.048;-1.928;2023-09-08T01:41:36;100779.50;;;21.07;100.00
45050;BME280;61798;48.048;-1.928;2023-09-08T01:43:42;100785.22;;;21.06;100.00
45050;BME280;61798;48.048;-1.928;2023-09-08T01:45:48;100784.13;;;21.07;100.00
45050;BME280;61798;48.048;-1.928;2023-09-08T01:47:54;100783.94;;;21.13;100.00
45050;BME280;61798;48.048;-1.928;2023-09-08T01:50:00;100771.25;;;21.02;100.00
45050;BME280;61798;48.048;-1.928;2023-09-08T01:52:06;100791.72;;;21.05;100.00
45050;BME280;61798;48.048;-1.928;2023-09-08T01:54:12;100786.75;;;20.96;100.00
45050;BME280;61798;48.048;-1.928;2023-09-08T01:56:18;100796.16;;;20.78;100.00
45050;BME280;61798;48.048;-1.928;2023-09-08T01:58:24;100790.97;;;20.48;100.00
45050;BME280;61798;48.048;-1.928;2023-09-08T02:00:31;100780.63;;;20.23;100.00
45050;BME280;61798;48.048;-1.928;2023-09-08T02:02:37;100795.31;;;20.22;100.00
45050;BME280;61798;48.048;-1.928;2023-09-08T02:04:43;100789.22;;;20.14;100.00
45050;BME280;61798;48.048;-1.928;2023-09-08T02:06:49;100798.47;;;20.13;100.00
45050;BME280;61798;48.048;-1.928;2023-09-08T02:08:55;100802.69;;;20.26;100.00
45050;BME280;61798;48.048;-1.928;2023-09-08T02:11:00;100792.94;;;20.31;100.00
45050;BME280;61798;48.048;-1.928;2023-09-08T02:13:06;100801.84;;;20.48;100.00
45050;BME280;61798;48.048;-1.928;2023-09-08T02:15:12;100798.53;;;20.41;100.00
45050;BME280;61798;48.048;-1.928;2023-09-08T02:17:18;100784.00;;;20.30;100.00
45050;BME280;61798;48.048;-1.928;2023-09-08T02:19:24;100791.31;;;20.07;100.00
45050;BME280;61798;48.048;-1.928;2023-09-08T02:21:30;100785.13;;;19.89;100.00
45050;BME280;61798;48.048;-1.928;2023-09-08T02:23:36;100783.41;;;19.83;100.00
45050;BME280;61798;48.048;-1.928;2023-09-08T02:25:42;100795.09;;;19.83;100.00
45050;BME280;61798;48.048;-1.928;2023-09-08T02:27:48;100797.31;;;20.09;100.00
45050;BME280;61798;48.048;-1.928;2023-09-08T02:29:54;100795.22;;;20.39;100.00
45050;BME280;61798;48.048;-1.928;2023-09-08T02:32:00;100767.47;;;20.14;100.00
45050;BME280;61798;48.048;-1.928;2023-09-08T02:34:06;100792.94;;;20.08;100.00
45050;BME280;61798;48.048;-1.928;2023-09-08T02:36:12;100805.22;;;19.88;100.00
45050;BME280;61798;48.048;-1.928;2023-09-08T02:38:18;100793.63;;;19.75;100.00
45050;BME280;61798;48.048;-1.928;2023-09-08T02:40:24;100811.47;;;19.66;100.00
45050;BME280;61798;48.048;-1.928;2023-09-08T02:42:30;100805.38;;;19.59;100.00
45050;BME280;61798;48.048;-1.928;2023-09-08T02:44:36;100807.75;;;19.72;100.00
45050;BME280;61798;48.048;-1.928;2023-09-08T02:46:42;100816.28;;;20.04;100.00
45050;BME280;61798;48.048;-1.928;2023-09-08T02:48:48;100797.06;;;20.11;100.00
45050;BME280;61798;48.048;-1.928;2023-09-08T02:50:54;100798.16;;;20.32;100.00
45050;BME280;61798;48.048;-1.928;2023-09-08T02:53:00;100789.44;;;20.30;100.00
45050;BME280;61798;48.048;-1.928;2023-09-08T02:55:06;100798.06;;;20.49;100.00
45050;BME280;61798;48.048;-1.928;2023-09-08T02:57:12;100804.19;;;20.62;100.00
45050;BME280;61798;48.048;-1.928;2023-09-08T02:59:18;100792.66;;;20.55;100.00
45050;BME280;61798;48.048;-1.928;2023-09-08T03:01:24;100808.63;;;20.74;100.00
45050;BME280;61798;48.048;-1.928;2023-09-08T03:03:30;100797.09;;;20.61;100.00
45050;BME280;61798;48.048;-1.928;2023-09-08T03:05:36;100804.50;;;20.71;100.00
45050;BME280;61798;48.048;-1.928;2023-09-08T03:07:42;100786.50;;;20.65;100.00
45050;BME280;61798;48.048;-1.928;2023-09-08T03:09:48;100795.22;;;20.67;100.00
45050;BME280;61798;48.048;-1.928;2023-09-08T03:11:54;100780.75;;;20.61;100.00
45050;BME280;61798;48.048;-1.928;2023-09-08T03:14:00;100796.41;;;20.76;100.00
45050;BME280;61798;48.048;-1.928;2023-09-08T03:16:07;100783.63;;;20.77;100.00
45050;BME280;61798;48.048;-1.928;2023-09-08T03:18:13;100783.63;;;20.77;100.00
45050;BME280;61798;48.048;-1.928;2023-09-08T03:20:19;100787.34;;;20.70;100.00
45050;BME280;61798;48.048;-1.928;2023-09-08T03:22:25;100788.69;;;20.68;100.00
45050;BME280;61798;48.048;-1.928;2023-09-08T03:24:31;100775.00;;;20.57;100.00
45050;BME280;61798;48.048;-1.928;2023-09-08T03:26:37;100776.97;;;20.62;100.00
45050;BME280;61798;48.048;-1.928;2023-09-08T03:28:45;100784.38;;;20.72;100.00
45050;BME280;61798;48.048;-1.928;2023-09-08T03:30:51;100780.53;;;20.68;100.00
45050;BME280;61798;48.048;-1.928;2023-09-08T03:32:57;100791.63;;;20.61;100.00
45050;BME280;61798;48.048;-1.928;2023-09-08T03:35:03;100783.19;;;20.63;100.00
45050;BME280;61798;48.048;-1.928;2023-09-08T03:37:11;100788.03;;;20.55;100.00
45050;BME280;61798;48.048;-1.928;2023-09-08T03:39:17;100764.81;;;20.47;100.00
45050;BME280;61798;48.048;-1.928;2023-09-08T03:41:25;100777.66;;;20.52;100.00
45050;BME280;61798;48.048;-1.928;2023-09-08T03:43:31;100778.78;;;20.56;100.00
45050;BME280;61798;48.048;-1.928;2023-09-08T03:45:37;100762.16;;;20.53;100.00
45050;BME280;61798;48.048;-1.928;2023-09-08T03:47:42;100778.19;;;20.49;100.00
45050;BME280;61798;48.048;-1.928;2023-09-08T03:49:48;100787.34;;;20.37;100.00
45050;BME280;61798;48.048;-1.928;2023-09-08T03:51:54;100774.94;;;20.24;100.00
45050;BME280;61798;48.048;-1.928;2023-09-08T03:54:00;100776.44;;;20.15;100.00
45050;BME280;61798;48.048;-1.928;2023-09-08T03:56:06;100778.97;;;19.99;100.00
45050;BME280;61798;48.048;-1.928;2023-09-08T03:58:12;100790.16;;;19.80;100.00
45050;BME280;61798;48.048;-1.928;2023-09-08T04:00:19;100796.63;;;19.74;100.00
45050;BME280;61798;48.048;-1.928;2023-09-08T04:02:27;100780.16;;;19.63;100.00
45050;BME280;61798;48.048;-1.928;2023-09-08T04:04:33;100780.75;;;19.88;100.00
45050;BME280;61798;48.048;-1.928;2023-09-08T04:06:39;100790.69;;;20.00;100.00
45050;BME280;61798;48.048;-1.928;2023-09-08T04:08:44;100767.97;;;20.11;100.00
45050;BME280;61798;48.048;-1.928;2023-09-08T04:10:50;100754.31;;;20.28;100.00
45050;BME280;61798;48.048;-1.928;2023-09-08T04:12:56;100778.50;;;20.53;100.00
45050;BME280;61798;48.048;-1.928;2023-09-08T04:15:02;100771.09;;;20.48;100.00
45050;BME280;61798;48.048;-1.928;2023-09-08T04:17:09;100755.50;;;20.38;100.00
45050;BME280;61798;48.048;-1.928;2023-09-08T04:19:15;100754.00;;;20.25;100.00
45050;BME280;61798;48.048;-1.928;2023-09-08T04:21:20;100778.63;;;19.90;100.00
45050;BME280;61798;48.048;-1.928;2023-09-08T04:23:26;100797.38;;;19.69;100.00
45050;BME280;61798;48.048;-1.928;2023-09-08T04:25:32;100789.56;;;19.55;100.00
45050;BME280;61798;48.048;-1.928;2023-09-08T04:27:39;100792.06;;;19.40;100.00
45050;BME280;61798;48.048;-1.928;2023-09-08T04:29:45;100788.94;;;19.31;100.00
45050;BME280;61798;48.048;-1.928;2023-09-08T04:31:51;100797.88;;;19.26;100.00
45050;BME280;61798;48.048;-1.928;2023-09-08T04:33:57;100799.97;;;19.24;100.00
45050;BME280;61798;48.048;-1.928;2023-09-08T04:36:03;100813.34;;;19.26;100.00
45050;BME280;61798;48.048;-1.928;2023-09-08T04:38:09;100809.09;;;19.18;100.00
45050;BME280;61798;48.048;-1.928;2023-09-08T04:40:15;100800.03;;;19.12;100.00
45050;BME280;61798;48.048;-1.928;2023-09-08T04:42:21;100820.31;;;19.39;100.00
45050;BME280;61798;48.048;-1.928;2023-09-08T04:44:27;100814.72;;;19.28;100.00
45050;BME280;61798;48.048;-1.928;2023-09-08T04:46:35;100812.56;;;19.13;100.00
45050;BME280;61798;48.048;-1.928;2023-09-08T04:48:40;100812.47;;;19.08;100.00
45050;BME280;61798;48.048;-1.928;2023-09-08T04:50:47;100814.03;;;19.03;100.00
45050;BME280;61798;48.048;-1.928;2023-09-08T04:52:53;100808.88;;;19.02;100.00
45050;BME280;61798;48.048;-1.928;2023-09-08T04:54:59;100819.13;;;19.00;100.00
45050;BME280;61798;48.048;-1.928;2023-09-08T04:57:05;100808.66;;;18.91;100.00
45050;BME280;61798;48.048;-1.928;2023-09-08T04:59:11;100809.81;;;18.96;100.00
45050;BME280;61798;48.048;-1.928;2023-09-08T05:01:17;100812.13;;;19.04;100.00
45050;BME280;61798;48.048;-1.928;2023-09-08T05:03:23;100810.53;;;19.38;100.00
45050;BME280;61798;48.048;-1.928;2023-09-08T05:05:29;100813.47;;;19.53;100.00
45050;BME280;61798;48.048;-1.928;2023-09-08T05:07:35;100800.72;;;19.37;100.00
45050;BME280;61798;48.048;-1.928;2023-09-08T05:09:41;100797.25;;;19.41;100.00
45050;BME280;61798;48.048;-1.928;2023-09-08T05:11:47;100795.47;;;19.30;100.00
45050;BME280;61798;48.048;-1.928;2023-09-08T05:13:53;100797.59;;;19.10;100.00
45050;BME280;61798;48.048;-1.928;2023-09-08T05:15:59;100802.19;;;19.44;100.00
45050;BME280;61798;48.048;-1.928;2023-09-08T05:18:16;100767.56;;;19.34;100.00
45050;BME280;61798;48.048;-1.928;2023-09-08T05:20:22;100796.25;;;19.48;100.00
45050;BME280;61798;48.048;-1.928;2023-09-08T05:22:28;100797.72;;;19.55;100.00
45050;BME280;61798;48.048;-1.928;2023-09-08T05:24:34;100790.09;;;19.35;100.00
45050;BME280;61798;48.048;-1.928;2023-09-08T05:26:42;100801.13;;;19.28;100.00
45050;BME280;61798;48.048;-1.928;2023-09-08T05:28:47;100792.88;;;19.58;100.00
45050;BME280;61798;48.048;-1.928;2023-09-08T05:30:54;100794.63;;;19.86;100.00
45050;BME280;61798;48.048;-1.928;2023-09-08T05:33:00;100802.19;;;20.07;100.00
45050;BME280;61798;48.048;-1.928;2023-09-08T05:35:06;100800.88;;;20.10;100.00
45050;BME280;61798;48.048;-1.928;2023-09-08T05:37:12;100787.97;;;20.00;100.00
45050;BME280;61798;48.048;-1.928;2023-09-08T05:39:18;100805.56;;;20.14;100.00
45050;BME280;61798;48.048;-1.928;2023-09-08T05:41:25;100797.84;;;20.06;100.00
45050;BME280;61798;48.048;-1.928;2023-09-08T05:43:30;100777.78;;;19.90;100.00
45050;BME280;61798;48.048;-1.928;2023-09-08T05:45:37;100793.53;;;20.10;100.00
45050;BME280;61798;48.048;-1.928;2023-09-08T05:47:42;100790.75;;;20.05;100.00
45050;BME280;61798;48.048;-1.928;2023-09-08T05:49:49;100786.25;;;19.93;100.00
45050;BME280;61798;48.048;-1.928;2023-09-08T05:51:55;100787.31;;;19.92;100.00
45050;BME280;61798;48.048;-1.928;2023-09-08T05:54:00;100782.84;;;19.81;100.00
45050;BME280;61798;48.048;-1.928;2023-09-08T05:56:07;100794.72;;;19.97;100.00
45050;BME280;61798;48.048;-1.928;2023-09-08T05:58:13;100781.38;;;19.95;100.00
45050;BME280;61798;48.048;-1.928;2023-09-08T06:00:19;100801.94;;;20.08;100.00
45050;BME280;61798;48.048;-1.928;2023-09-08T06:02:25;100781.56;;;19.89;100.00
45050;BME280;61798;48.048;-1.928;2023-09-08T06:04:31;100795.09;;;19.83;100.00
45050;BME280;61798;48.048;-1.928;2023-09-08T06:06:38;100799.03;;;19.70;100.00
45050;BME280;61798;48.048;-1.928;2023-09-08T06:08:44;100816.59;;;19.62;100.00
45050;BME280;61798;48.048;-1.928;2023-09-08T06:10:50;100826.00;;;19.54;100.00
45050;BME280;61798;48.048;-1.928;2023-09-08T06:12:56;100830.00;;;19.52;100.00
45050;BME280;61798;48.048;-1.928;2023-09-08T06:15:02;100831.25;;;19.44;100.00
45050;BME280;61798;48.048;-1.928;2023-09-08T06:17:09;100830.94;;;19.40;100.00
45050;BME280;61798;48.048;-1.928;2023-09-08T06:19:15;100839.09;;;19.40;100.00
45050;BME280;61798;48.048;-1.928;2023-09-08T06:21:22;100831.06;;;19.51;100.00
45050;BME280;61798;48.048;-1.928;2023-09-08T06:23:28;100831.47;;;19.60;100.00
45050;BME280;61798;48.048;-1.928;2023-09-08T06:25:34;100828.53;;;19.44;100.00
45050;BME280;61798;48.048;-1.928;2023-09-08T06:27:39;100850.94;;;19.51;100.00
45050;BME280;61798;48.048;-1.928;2023-09-08T06:29:45;100842.41;;;19.42;100.00
45050;BME280;61798;48.048;-1.928;2023-09-08T06:31:51;100861.31;;;19.54;100.00
45050;BME280;61798;48.048;-1.928;2023-09-08T06:33:57;100847.56;;;19.44;100.00
45050;BME280;61798;48.048;-1.928;2023-09-08T06:36:03;100864.53;;;19.51;100.00
45050;BME280;61798;48.048;-1.928;2023-09-08T06:38:10;100842.41;;;19.42;100.00
45050;BME280;61798;48.048;-1.928;2023-09-08T06:40:16;100848.38;;;19.62;100.00
45050;BME280;61798;48.048;-1.928;2023-09-08T06:42:22;100848.31;;;19.96;100.00
45050;BME280;61798;48.048;-1.928;2023-09-08T06:44:28;100826.84;;;20.00;100.00
45050;BME280;61798;48.048;-1.928;2023-09-08T06:46:34;100830.78;;;20.10;100.00
45050;BME280;61798;48.048;-1.928;2023-09-08T06:48:40;100840.53;;;20.05;100.00
45050;BME280;61798;48.048;-1.928;2023-09-08T06:50:46;100838.88;;;20.04;100.00
45050;BME280;61798;48.048;-1.928;2023-09-08T06:52:52;100857.16;;;20.09;100.00
45050;BME280;61798;48.048;-1.928;2023-09-08T06:54:58;100855.50;;;20.08;100.00
45050;BME280;61798;48.048;-1.928;2023-09-08T06:57:04;100854.75;;;20.13;100.00
45050;BME280;61798;48.048;-1.928;2023-09-08T06:59:10;100844.94;;;20.12;100.00
45050;BME280;61798;48.048;-1.928;2023-09-08T07:01:16;100861.38;;;20.39;100.00
45050;BME280;61798;48.048;-1.928;2023-09-08T07:03:22;100848.34;;;20.42;100.00
45050;BME280;61798;48.048;-1.928;2023-09-08T07:05:28;100848.97;;;20.49;100.00
45050;BME280;61798;48.048;-1.928;2023-09-08T07:07:35;100854.63;;;20.70;100.00
45050;BME280;61798;48.048;-1.928;2023-09-08T07:09:41;100830.53;;;20.56;100.00
45050;BME280;61798;48.048;-1.928;2023-09-08T07:11:47;100843.88;;;20.86;100.00
45050;BME280;61798;48.048;-1.928;2023-09-08T07:13:52;100824.97;;;20.74;100.00
45050;BME280;61798;48.048;-1.928;2023-09-08T07:15:58;100839.03;;;20.93;100.00
45050;BME280;61798;48.048;-1.928;2023-09-08T07:18:05;100844.06;;;21.07;100.00
45050;BME280;61798;48.048;-1.928;2023-09-08T07:20:11;100857.19;;;21.10;100.00
45050;BME280;61798;48.048;-1.928;2023-09-08T07:22:17;100824.81;;;21.13;100.00
45050;BME280;61798;48.048;-1.928;2023-09-08T07:24:23;100843.53;;;21.43;100.00
45050;BME280;61798;48.048;-1.928;2023-09-08T07:26:29;100839.13;;;21.37;100.00
45050;BME280;61798;48.048;-1.928;2023-09-08T07:28:35;100843.56;;;21.48;100.00
45050;BME280;61798;48.048;-1.928;2023-09-08T07:30:42;100836.81;;;21.56;100.00
45050;BME280;61798;48.048;-1.928;2023-09-08T07:32:48;100847.22;;;21.70;100.00
45050;BME280;61798;48.048;-1.928;2023-09-08T07:34:54;100846.66;;;21.62;100.00
45050;BME280;61798;48.048;-1.928;2023-09-08T07:37:01;100859.88;;;21.81;100.00
45050;BME280;61798;48.048;-1.928;2023-09-08T07:39:07;100843.47;;;21.76;100.00
45050;BME280;61798;48.048;-1.928;2023-09-08T07:41:13;100845.69;;;21.84;100.00
45050;BME280;61798;48.048;-1.928;2023-09-08T07:43:19;100852.31;;;21.94;100.00
45050;BME280;61798;48.048;-1.928;2023-09-08T07:45:24;100854.78;;;21.95;100.00
45050;BME280;61798;48.048;-1.928;2023-09-08T07:47:31;100865.44;;;22.02;100.00
45050;BME280;61798;48.048;-1.928;2023-09-08T07:49:37;100861.63;;;22.03;100.00
45050;BME280;61798;48.048;-1.928;2023-09-08T07:51:43;100852.81;;;21.91;100.00
45050;BME280;61798;48.048;-1.928;2023-09-08T07:53:48;100863.78;;;21.96;100.00
45050;BME280;61798;48.048;-1.928;2023-09-08T07:55:54;100874.44;;;21.97;100.00
45050;BME280;61798;48.048;-1.928;2023-09-08T07:58:01;100864.63;;;22.02;100.00
45050;BME280;61798;48.048;-1.928;2023-09-08T08:00:08;100853.72;;;22.07;100.00
45050;BME280;61798;48.048;-1.928;2023-09-08T08:02:17;100872.06;;;22.17;100.00
45050;BME280;61798;48.048;-1.928;2023-09-08T08:04:23;100867.94;;;22.14;100.00
45050;BME280;61798;48.048;-1.928;2023-09-08T08:06:29;100876.47;;;22.23;100.00
45050;BME280;61798;48.048;-1.928;2023-09-08T08:08:35;100875.88;;;22.16;100.00
45050;BME280;61798;48.048;-1.928;2023-09-08T08:10:44;100874.84;;;22.27;100.00
45050;BME280;61798;48.048;-1.928;2023-09-08T08:12:50;100869.41;;;22.38;100.00
45050;BME280;61798;48.048;-1.928;2023-09-08T08:14:56;100875.97;;;22.42;100.00
45050;BME280;61798;48.048;-1.928;2023-09-08T08:17:02;100871.06;;;22.44;100.00
45050;BME280;61798;48.048;-1.928;2023-09-08T08:19:08;100871.06;;;22.39;100.00
45050;BME280;61798;48.048;-1.928;2023-09-08T08:21:14;100881.72;;;22.40;100.00
45050;BME280;61798;48.048;-1.928;2023-09-08T08:23:20;100878.19;;;22.45;100.00
45050;BME280;61798;48.048;-1.928;2023-09-08T08:25:26;100900.56;;;22.47;100.00
45050;BME280;61798;48.048;-1.928;2023-09-08T08:27:32;100881.47;;;22.47;100.00
45050;BME280;61798;48.048;-1.928;2023-09-08T08:29:39;100889.16;;;22.66;100.00
45050;BME280;61798;48.048;-1.928;2023-09-08T08:31:45;100900.94;;;22.77;100.00
45050;BME280;61798;48.048;-1.928;2023-09-08T08:33:51;100894.09;;;22.75;100.00
45050;BME280;61798;48.048;-1.928;2023-09-08T08:35:57;100895.44;;;22.67;100.00
45050;BME280;61798;48.048;-1.928;2023-09-08T08:38:03;100884.03;;;22.80;100.00
45050;BME280;61798;48.048;-1.928;2023-09-08T08:40:10;100890.63;;;23.00;100.00
45050;BME280;61798;48.048;-1.928;2023-09-08T08:42:18;100894.16;;;23.11;100.00
45050;BME280;61798;48.048;-1.928;2023-09-08T08:44:28;100889.50;;;23.17;100.00
45050;BME280;61798;48.048;-1.928;2023-09-08T08:46:36;100876.13;;;23.21;100.00
45050;BME280;61798;48.048;-1.928;2023-09-08T08:48:42;100872.03;;;23.29;100.00
45050;BME280;61798;48.048;-1.928;2023-09-08T08:50:50;100880.22;;;23.34;100.00
45050;BME280;61798;48.048;-1.928;2023-09-08T08:52:56;100882.41;;;23.32;100.00
45050;BME280;61798;48.048;-1.928;2023-09-08T08:55:02;100892.50;;;23.42;100.00
45050;BME280;61798;48.048;-1.928;2023-09-08T08:57:11;100887.84;;;23.53;100.00
45050;BME280;61798;48.048;-1.928;2023-09-08T08:59:18;100880.47;;;23.53;100.00
45050;BME280;61798;48.048;-1.928;2023-09-08T09:01:25;100883.75;;;23.71;100.00
45050;BME280;61798;48.048;-1.928;2023-09-08T09:03:31;100890.84;;;23.77;100.00
45050;BME280;61798;48.048;-1.928;2023-09-08T09:05:41;100890.28;;;23.96;100.00
45050;BME280;61798;48.048;-1.928;2023-09-08T09:07:48;100853.63;;;23.82;100.00
45050;BME280;61798;48.048;-1.928;2023-09-08T09:09:54;100872.47;;;24.04;100.00
45050;BME280;61798;48.048;-1.928;2023-09-08T09:12:01;100877.06;;;24.14;100.00
45050;BME280;61798;48.048;-1.928;2023-09-08T09:14:08;100875.91;;;24.31;100.00
45050;BME280;61798;48.048;-1.928;2023-09-08T09:16:14;100874.25;;;24.35;100.00
45050;BME280;61798;48.048;-1.928;2023-09-08T09:18:20;100872.34;;;24.36;100.00
45050;BME280;61798;48.048;-1.928;2023-09-08T09:20:26;100880.75;;;24.50;100.00
45050;BME280;61798;48.048;-1.928;2023-09-08T09:22:36;100879.59;;;24.61;100.00
45050;BME280;61798;48.048;-1.928;2023-09-08T09:24:42;100858.34;;;24.43;100.00
45050;BME280;61798;48.048;-1.928;2023-09-08T09:26:52;100866.97;;;24.66;100.00
45050;BME280;61798;48.048;-1.928;2023-09-08T09:28:58;100869.69;;;24.71;100.00
45050;BME280;61798;48.048;-1.928;2023-09-08T09:31:05;100857.25;;;24.84;100.00
45050;BME280;61798;48.048;-1.928;2023-09-08T09:33:11;100855.78;;;24.97;100.00
45050;BME280;61798;48.048;-1.928;2023-09-08T09:35:17;100867.13;;;25.20;100.00
45050;BME280;61798;48.048;-1.928;2023-09-08T09:37:23;100861.09;;;25.23;100.00
45050;BME280;61798;48.048;-1.928;2023-09-08T09:39:29;100860.31;;;25.18;100.00
45050;BME280;61798;48.048;-1.928;2023-09-08T09:41:35;100850.59;;;25.31;100.00
45050;BME280;61798;48.048;-1.928;2023-09-08T09:43:42;100851.59;;;25.40;100.00
45050;BME280;61798;48.048;-1.928;2023-09-08T09:45:49;100857.13;;;25.35;100.00
45050;BME280;61798;48.048;-1.928;2023-09-08T09:47:56;100850.72;;;25.45;100.00
45050;BME280;61798;48.048;-1.928;2023-09-08T09:50:02;100864.13;;;25.52;100.00
45050;BME280;61798;48.048;-1.928;2023-09-08T09:52:08;100847.66;;;25.52;100.00
45050;BME280;61798;48.048;-1.928;2023-09-08T09:54:14;100848.41;;;25.58;100.00
45050;BME280;61798;48.048;-1.928;2023-09-08T09:56:22;100857.47;;;25.58;100.00
45050;BME280;61798;48.048;-1.928;2023-09-08T09:58:28;100859.38;;;25.58;100.00
45050;BME280;61798;48.048;-1.928;2023-09-08T10:00:35;100843.66;;;25.39;100.00
45050;BME280;61798;48.048;-1.928;2023-09-08T10:02:43;100831.31;;;25.66;100.00
45050;BME280;61798;48.048;-1.928;2023-09-08T10:04:49;100842.38;;;25.85;100.00
45050;BME280;61798;48.048;-1.928;2023-09-08T10:06:56;100840.78;;;25.79;100.00
45050;BME280;61798;48.048;-1.928;2023-09-08T10:09:05;100853.59;;;26.08;100.00
45050;BME280;61798;48.048;-1.928;2023-09-08T10:11:16;100799.44;;;25.70;100.00
45050;BME280;61798;48.048;-1.928;2023-09-08T10:13:31;100850.66;;;26.24;100.00
45050;BME280;61798;48.048;-1.928;2023-09-08T10:15:40;100847.38;;;26.03;100.00
45050;BME280;61798;48.048;-1.928;2023-09-08T10:17:53;100831.78;;;25.98;100.00
45050;BME280;61798;48.048;-1.928;2023-09-08T10:20:00;100848.56;;;26.16;100.00
45050;BME280;61798;48.048;-1.928;2023-09-08T10:22:10;100852.69;;;25.94;100.00
45050;BME280;61798;48.048;-1.928;2023-09-08T10:24:22;100840.16;;;25.87;100.00
45050;BME280;61798;48.048;-1.928;2023-09-08T10:26:30;100845.97;;;26.05;100.00
45050;BME280;61798;48.048;-1.928;2023-09-08T10:28:38;100792.38;;;26.08;100.00
45050;BME280;61798;48.048;-1.928;2023-09-08T10:30:45;100833.28;;;26.48;100.00
45050;BME280;61798;48.048;-1.928;2023-09-08T10:32:52;100825.16;;;26.63;100.00
45050;BME280;61798;48.048;-1.928;2023-09-08T10:34:59;100797.75;;;26.57;100.00
45050;BME280;61798;48.048;-1.928;2023-09-08T10:37:23;100836.50;;;26.75;100.00
45050;BME280;61798;48.048;-1.928;2023-09-08T10:39:36;100829.28;;;26.79;100.00
45050;BME280;61798;48.048;-1.928;2023-09-08T10:41:45;100821.59;;;26.96;100.00
45050;BME280;61798;48.048;-1.928;2023-09-08T10:44:01;100823.13;;;27.21;100.00
45050;BME280;61798;48.048;-1.928;2023-09-08T10:46:09;100854.22;;;27.36;100.00
45050;BME280;61798;48.048;-1.928;2023-09-08T10:48:15;100849.31;;;27.47;100.00